sensor_id;sensor_type;location;lat;lon;timestamp;P1;durP1;ratioP1;P2;durP2;ratioP2
77864;SDS011;67061;48.524;9.040;2023-06-10T00:01:43;10.40;;;9.25;;
77864;SDS011;67061;48.524;9.040;2023-06-10T00:04:12;10.00;;;9.00;;
77864;SDS011;67061;48.524;9.040;2023-06-10T00:06:39;10.45;;;9.35;;
77864;SDS011;67061;48.524;9.040;2023-06-10T00:09:06;10.07;;;8.93;;
77864;SDS011;67061;48.524;9.040;2023-06-10T00:11:35;9.85;;;9.05;;
77864;SDS011;67061;48.524;9.040;2023-06-10T00:14:02;8.20;;;7.40;;
77864;SDS011;67061;48.524;9.040;2023-06-10T00:16:31;10.93;;;9.82;;
77864;SDS011;67061;48.524;9.040;2023-06-10T00:18:58;10.63;;;9.63;;
77864;SDS011;67061;48.524;9.040;2023-06-10T00:21:26;10.60;;;9.18;;
77864;SDS011;67061;48.524;9.040;2023-06-10T00:23:53;9.00;;;7.78;;
77864;SDS011;67061;48.524;9.040;2023-06-10T00:26:20;10.23;;;9.13;;
77864;SDS011;67061;48.524;9.040;2023-06-10T00:28:47;9.82;;;8.82;;
77864;SDS011;67061;48.524;9.040;2023-06-10T00:31:14;10.23;;;8.73;;
77864;SDS011;67061;48.524;9.040;2023-06-10T00:33:43;10.55;;;9.45;;
77864;SDS011;67061;48.524;9.040;2023-06-10T00:36:10;10.13;;;9.20;;
77864;SDS011;67061;48.524;9.040;2023-06-10T00:38:37;10.70;;;9.60;;
77864;SDS011;67061;48.524;9.040;2023-06-10T00:41:05;10.45;;;9.27;;
77864;SDS011;67061;48.524;9.040;2023-06-10T00:43:32;10.05;;;8.32;;
77864;SDS011;67061;48.524;9.040;2023-06-10T00:45:59;9.98;;;8.73;;
77864;SDS011;67061;48.524;9.040;2023-06-10T00:48:27;10.52;;;9.43;;
77864;SDS011;67061;48.524;9.040;2023-06-10T00:50:55;10.75;;;9.65;;
77864;SDS011;67061;48.524;9.040;2023-06-10T00:53:23;10.82;;;9.73;;
77864;SDS011;67061;48.524;9.040;2023-06-10T00:55:50;11.35;;;10.13;;
77864;SDS011;67061;48.524;9.040;2023-06-10T00:58:17;9.88;;;8.90;;
77864;SDS011;67061;48.524;9.040;2023-06-10T01:00:45;10.63;;;9.52;;
77864;SDS011;67061;48.524;9.040;2023-06-10T01:03:11;8.52;;;7.63;;
77864;SDS011;67061;48.524;9.040;2023-06-10T01:05:39;10.65;;;7.85;;
77864;SDS011;67061;48.524;9.040;2023-06-10T01:08:12;10.77;;;8.48;;
77864;SDS011;67061;48.524;9.040;2023-06-10T01:10:47;10.43;;;9.10;;
77864;SDS011;67061;48.524;9.040;2023-06-10T01:13:19;9.15;;;7.90;;
77864;SDS011;67061;48.524;9.040;2023-06-10T01:15:48;11.18;;;9.85;;
77864;SDS011;67061;48.524;9.040;2023-06-10T01:18:16;10.60;;;9.60;;
77864;SDS011;67061;48.524;9.040;2023-06-10T01:20:43;10.75;;;7.95;;
77864;SDS011;67061;48.524;9.040;2023-06-10T01:23:13;10.98;;;9.77;;
77864;SDS011;67061;48.524;9.040;2023-06-10T01:25:42;11.10;;;10.07;;
77864;SDS011;67061;48.524;9.040;2023-06-10T01:28:13;10.15;;;8.38;;
77864;SDS011;67061;48.524;9.040;2023-06-10T01:30:53;9.88;;;8.32;;
77864;SDS011;67061;48.524;9.040;2023-06-10T01:33:26;10.75;;;8.15;;
77864;SDS011;67061;48.524;9.040;2023-06-10T01:35:56;11.25;;;10.15;;
77864;SDS011;67061;48.524;9.040;2023-06-10T01:40:53;10.98;;;9.88;;
77864;SDS011;67061;48.524;9.040;2023-06-10T01:43:22;10.43;;;9.43;;
77864;SDS011;67061;48.524;9.040;2023-06-10T01:45:50;11.40;;;10.18;;
77864;SDS011;67061;48.524;9.040;2023-06-10T01:48:17;10.68;;;9.57;;
77864;SDS011;67061;48.524;9.040;2023-06-10T01:50:43;11.95;;;10.65;;
77864;SDS011;67061;48.524;9.040;2023-06-10T01:53:10;9.35;;;8.45;;
77864;SDS011;67061;48.524;9.040;2023-06-10T01:55:39;9.27;;;8.32;;
77864;SDS011;67061;48.524;9.040;2023-06-10T01:58:05;10.75;;;9.65;;
77864;SDS011;67061;48.524;9.040;2023-06-10T02:00:32;11.30;;;10.13;;
77864;SDS011;67061;48.524;9.040;2023-06-10T02:02:59;14.68;;;10.10;;
77864;SDS011;67061;48.524;9.040;2023-06-10T02:05:26;9.32;;;8.32;;
77864;SDS011;67061;48.524;9.040;2023-06-10T02:07:53;11.23;;;10.13;;
77864;SDS011;67061;48.524;9.040;2023-06-10T02:10:20;10.00;;;8.82;;
77864;SDS011;67061;48.524;9.040;2023-06-10T02:12:48;9.98;;;8.75;;
77864;SDS011;67061;48.524;9.040;2023-06-10T02:15:15;10.05;;;8.80;;
77864;SDS011;67061;48.524;9.040;2023-06-10T02:17:42;11.50;;;8.23;;
77864;SDS011;67061;48.524;9.040;2023-06-10T02:20:10;11.35;;;10.15;;
77864;SDS011;67061;48.524;9.040;2023-06-10T02:22:38;10.82;;;9.73;;
77864;SDS011;67061;48.524;9.040;2023-06-10T02:25:06;10.70;;;9.60;;
77864;SDS011;67061;48.524;9.040;2023-06-10T02:27:33;12.20;;;9.02;;
77864;SDS011;67061;48.524;9.040;2023-06-10T02:30:02;11.95;;;9.07;;
77864;SDS011;67061;48.524;9.040;2023-06-10T02:32:29;9.10;;;8.18;;
77864;SDS011;67061;48.524;9.040;2023-06-10T02:34:55;10.48;;;9.07;;
77864;SDS011;67061;48.524;9.040;2023-06-10T02:37:22;10.32;;;9.00;;
77864;SDS011;67061;48.524;9.040;2023-06-10T02:39:49;12.07;;;10.85;;
77864;SDS011;67061;48.524;9.040;2023-06-10T02:42:16;11.55;;;8.85;;
77864;SDS011;67061;48.524;9.040;2023-06-10T02:44:43;10.82;;;9.18;;
77864;SDS011;67061;48.524;9.040;2023-06-10T02:47:11;11.75;;;10.52;;
77864;SDS011;67061;48.524;9.040;2023-06-10T02:49:38;11.63;;;9.27;;
77864;SDS011;67061;48.524;9.040;2023-06-10T02:52:05;10.02;;;8.40;;
77864;SDS011;67061;48.524;9.040;2023-06-10T02:54:33;10.00;;;9.00;;
77864;SDS011;67061;48.524;9.040;2023-06-10T02:57:00;11.57;;;10.38;;
77864;SDS011;67061;48.524;9.040;2023-06-10T02:59:27;10.32;;;9.10;;
77864;SDS011;67061;48.524;9.040;2023-06-10T03:01:54;11.30;;;10.10;;
77864;SDS011;67061;48.524;9.040;2023-06-10T03:04:23;11.32;;;8.90;;
77864;SDS011;67061;48.524;9.040;2023-06-10T03:06:50;11.07;;;9.48;;
77864;SDS011;67061;48.524;9.040;2023-06-10T03:09:17;12.10;;;10.90;;
77864;SDS011;67061;48.524;9.040;2023-06-10T03:11:44;13.00;;;10.73;;
77864;SDS011;67061;48.524;9.040;2023-06-10T03:14:11;12.13;;;10.60;;
77864;SDS011;67061;48.524;9.040;2023-06-10T03:16:38;10.43;;;8.75;;
77864;SDS011;67061;48.524;9.040;2023-06-10T03:19:05;9.55;;;8.52;;
77864;SDS011;67061;48.524;9.040;2023-06-10T03:21:34;11.13;;;9.23;;
77864;SDS011;67061;48.524;9.040;2023-06-10T03:24:02;10.55;;;9.00;;
77864;SDS011;67061;48.524;9.040;2023-06-10T03:26:30;12.77;;;11.18;;
77864;SDS011;67061;48.524;9.040;2023-06-10T03:28:57;12.02;;;10.82;;
77864;SDS011;67061;48.524;9.040;2023-06-10T03:31:24;13.85;;;11.40;;
77864;SDS011;67061;48.524;9.040;2023-06-10T03:33:50;11.48;;;10.32;;
77864;SDS011;67061;48.524;9.040;2023-06-10T03:36:17;11.38;;;10.25;;
77864;SDS011;67061;48.524;9.040;2023-06-10T03:38:46;11.95;;;9.68;;
77864;SDS011;67061;48.524;9.040;2023-06-10T03:41:12;11.10;;;9.55;;
77864;SDS011;67061;48.524;9.040;2023-06-10T03:43:40;12.23;;;9.68;;
77864;SDS011;67061;48.524;9.040;2023-06-10T03:46:07;12.52;;;11.20;;
77864;SDS011;67061;48.524;9.040;2023-06-10T03:48:34;12.27;;;10.80;;
77864;SDS011;67061;48.524;9.040;2023-06-10T03:51:01;13.52;;;10.82;;
77864;SDS011;67061;48.524;9.040;2023-06-10T03:53:28;11.38;;;10.18;;
77864;SDS011;67061;48.524;9.040;2023-06-10T03:55:56;9.55;;;8.55;;
77864;SDS011;67061;48.524;9.040;2023-06-10T03:58:23;13.43;;;11.95;;
77864;SDS011;67061;48.524;9.040;2023-06-10T04:00:50;10.63;;;8.95;;
77864;SDS011;67061;48.524;9.040;2023-06-10T04:03:18;11.48;;;9.52;;
77864;SDS011;67061;48.524;9.040;2023-06-10T04:05:46;11.50;;;9.50;;
77864;SDS011;67061;48.524;9.040;2023-06-10T04:08:13;11.55;;;9.02;;
77864;SDS011;67061;48.524;9.040;2023-06-10T04:10:40;10.77;;;9.57;;
77864;SDS011;67061;48.524;9.040;2023-06-10T04:13:08;13.93;;;11.20;;
77864;SDS011;67061;48.524;9.040;2023-06-10T04:15:35;15.45;;;11.18;;
77864;SDS011;67061;48.524;9.040;2023-06-10T04:18:03;12.60;;;10.65;;
77864;SDS011;67061;48.524;9.040;2023-06-10T04:20:30;11.98;;;9.80;;
77864;SDS011;67061;48.524;9.040;2023-06-10T04:22:58;12.55;;;11.25;;
77864;SDS011;67061;48.524;9.040;2023-06-10T04:25:26;10.55;;;9.45;;
77864;SDS011;67061;48.524;9.040;2023-06-10T04:27:54;13.25;;;11.70;;
77864;SDS011;67061;48.524;9.040;2023-06-10T04:30:22;11.75;;;10.55;;
77864;SDS011;67061;48.524;9.040;2023-06-10T04:32:49;11.40;;;10.13;;
77864;SDS011;67061;48.524;9.040;2023-06-10T04:35:17;13.70;;;10.27;;
77864;SDS011;67061;48.524;9.040;2023-06-10T04:37:44;13.88;;;12.43;;
77864;SDS011;67061;48.524;9.040;2023-06-10T04:40:11;12.27;;;10.02;;
77864;SDS011;67061;48.524;9.040;2023-06-10T04:42:39;11.43;;;9.85;;
77864;SDS011;67061;48.524;9.040;2023-06-10T04:45:06;12.15;;;10.85;;
77864;SDS011;67061;48.524;9.040;2023-06-10T04:47:35;11.25;;;9.40;;
77864;SDS011;67061;48.524;9.040;2023-06-10T04:50:03;11.10;;;9.35;;
77864;SDS011;67061;48.524;9.040;2023-06-10T04:52:30;10.40;;;9.30;;
77864;SDS011;67061;48.524;9.040;2023-06-10T04:54:58;10.85;;;9.00;;
77864;SDS011;67061;48.524;9.040;2023-06-10T04:57:26;12.07;;;10.52;;
77864;SDS011;67061;48.524;9.040;2023-06-10T04:59:53;10.82;;;9.70;;
77864;SDS011;67061;48.524;9.040;2023-06-10T05:02:20;11.38;;;8.93;;
77864;SDS011;67061;48.524;9.040;2023-06-10T05:04:49;11.88;;;10.68;;
77864;SDS011;67061;48.524;9.040;2023-06-10T05:07:16;11.32;;;9.85;;
77864;SDS011;67061;48.524;9.040;2023-06-10T05:09:43;12.35;;;9.75;;
77864;SDS011;67061;48.524;9.040;2023-06-10T05:12:10;13.15;;;10.30;;
77864;SDS011;67061;48.524;9.040;2023-06-10T05:14:37;11.68;;;10.48;;
77864;SDS011;67061;48.524;9.040;2023-06-10T05:17:04;11.07;;;9.68;;
77864;SDS011;67061;48.524;9.040;2023-06-10T05:19:32;11.05;;;9.77;;
77864;SDS011;67061;48.524;9.040;2023-06-10T05:22:02;11.98;;;9.82;;
77864;SDS011;67061;48.524;9.040;2023-06-10T05:24:29;11.32;;;10.13;;
77864;SDS011;67061;48.524;9.040;2023-06-10T05:26:56;12.43;;;11.23;;
77864;SDS011;67061;48.524;9.040;2023-06-10T05:29:23;12.30;;;10.18;;
77864;SDS011;67061;48.524;9.040;2023-06-10T05:31:50;11.85;;;10.07;;
77864;SDS011;67061;48.524;9.040;2023-06-10T05:34:17;13.20;;;11.70;;
77864;SDS011;67061;48.524;9.040;2023-06-10T05:36:45;14.48;;;12.88;;
77864;SDS011;67061;48.524;9.040;2023-06-10T05:39:13;12.70;;;10.23;;
77864;SDS011;67061;48.524;9.040;2023-06-10T05:41:40;13.75;;;11.57;;
77864;SDS011;67061;48.524;9.040;2023-06-10T05:44:07;13.77;;;12.32;;
77864;SDS011;67061;48.524;9.040;2023-06-10T05:46:34;13.18;;;10.77;;
77864;SDS011;67061;48.524;9.040;2023-06-10T05:49:01;13.15;;;10.07;;
77864;SDS011;67061;48.524;9.040;2023-06-10T05:51:28;11.43;;;10.07;;
77864;SDS011;67061;48.524;9.040;2023-06-10T05:53:55;11.43;;;10.10;;
77864;SDS011;67061;48.524;9.040;2023-06-10T05:56:23;12.02;;;10.35;;
77864;SDS011;67061;48.524;9.040;2023-06-10T06:01:17;11.13;;;9.95;;
77864;SDS011;67061;48.524;9.040;2023-06-10T06:03:44;11.68;;;10.48;;
77864;SDS011;67061;48.524;9.040;2023-06-10T06:06:11;11.48;;;10.27;;
77864;SDS011;67061;48.524;9.040;2023-06-10T06:08:38;10.82;;;9.73;;
77864;SDS011;67061;48.524;9.040;2023-06-10T06:11:05;11.15;;;9.70;;
77864;SDS011;67061;48.524;9.040;2023-06-10T06:13:33;12.85;;;9.20;;
77864;SDS011;67061;48.524;9.040;2023-06-10T06:16:00;10.18;;;9.07;;
77864;SDS011;67061;48.524;9.040;2023-06-10T06:18:27;12.30;;;11.13;;
77864;SDS011;67061;48.524;9.040;2023-06-10T06:20:54;12.05;;;10.80;;
77864;SDS011;67061;48.524;9.040;2023-06-10T06:23:21;10.48;;;9.48;;
77864;SDS011;67061;48.524;9.040;2023-06-10T06:25:48;11.52;;;9.00;;
77864;SDS011;67061;48.524;9.040;2023-06-10T06:28:15;10.55;;;9.30;;
77864;SDS011;67061;48.524;9.040;2023-06-10T06:30:44;12.25;;;11.02;;
77864;SDS011;67061;48.524;9.040;2023-06-10T06:33:11;10.35;;;9.25;;
77864;SDS011;67061;48.524;9.040;2023-06-10T06:35:38;10.65;;;8.73;;
77864;SDS011;67061;48.524;9.040;2023-06-10T06:38:05;9.88;;;8.85;;
77864;SDS011;67061;48.524;9.040;2023-06-10T06:40:32;9.73;;;8.73;;
77864;SDS011;67061;48.524;9.040;2023-06-10T06:42:59;9.70;;;8.63;;
77864;SDS011;67061;48.524;9.040;2023-06-10T06:45:26;12.00;;;10.70;;
77864;SDS011;67061;48.524;9.040;2023-06-10T06:47:54;9.98;;;8.93;;
77864;SDS011;67061;48.524;9.040;2023-06-10T06:50:21;10.85;;;9.75;;
77864;SDS011;67061;48.524;9.040;2023-06-10T06:52:48;12.27;;;10.98;;
77864;SDS011;67061;48.524;9.040;2023-06-10T06:55:15;11.75;;;10.52;;
77864;SDS011;67061;48.524;9.040;2023-06-10T06:57:42;10.55;;;9.55;;
77864;SDS011;67061;48.524;9.040;2023-06-10T07:00:09;10.32;;;9.32;;
77864;SDS011;67061;48.524;9.040;2023-06-10T07:02:37;11.07;;;9.98;;
77864;SDS011;67061;48.524;9.040;2023-06-10T07:05:07;9.43;;;8.40;;
77864;SDS011;67061;48.524;9.040;2023-06-10T07:07:34;11.07;;;9.98;;
77864;SDS011;67061;48.524;9.040;2023-06-10T07:10:01;10.15;;;8.68;;
77864;SDS011;67061;48.524;9.040;2023-06-10T07:12:28;11.10;;;9.88;;
77864;SDS011;67061;48.524;9.040;2023-06-10T07:14:55;9.38;;;7.93;;
77864;SDS011;67061;48.524;9.040;2023-06-10T07:17:22;8.85;;;7.97;;
77864;SDS011;67061;48.524;9.040;2023-06-10T07:19:49;9.30;;;7.60;;
77864;SDS011;67061;48.524;9.040;2023-06-10T07:22:17;8.50;;;7.60;;
77864;SDS011;67061;48.524;9.040;2023-06-10T07:24:44;8.98;;;7.07;;
77864;SDS011;67061;48.524;9.040;2023-06-10T07:27:11;9.82;;;8.82;;
77864;SDS011;67061;48.524;9.040;2023-06-10T07:29:38;8.90;;;8.00;;
77864;SDS011;67061;48.524;9.040;2023-06-10T07:32:05;9.65;;;8.70;;
77864;SDS011;67061;48.524;9.040;2023-06-10T07:34:33;8.32;;;7.40;;
77864;SDS011;67061;48.524;9.040;2023-06-10T07:37:00;9.75;;;8.07;;
77864;SDS011;67061;48.524;9.040;2023-06-10T07:39:29;9.75;;;8.55;;
77864;SDS011;67061;48.524;9.040;2023-06-10T07:41:56;8.82;;;7.97;;
77864;SDS011;67061;48.524;9.040;2023-06-10T07:44:23;8.23;;;7.40;;
77864;SDS011;67061;48.524;9.040;2023-06-10T07:46:51;7.80;;;6.32;;
77864;SDS011;67061;48.524;9.040;2023-06-10T07:49:18;7.38;;;6.30;;
77864;SDS011;67061;48.524;9.040;2023-06-10T07:51:45;6.97;;;6.25;;
77864;SDS011;67061;48.524;9.040;2023-06-10T07:54:12;9.18;;;8.30;;
77864;SDS011;67061;48.524;9.040;2023-06-10T07:56:40;8.00;;;7.28;;
77864;SDS011;67061;48.524;9.040;2023-06-10T07:59:07;8.02;;;6.00;;
77864;SDS011;67061;48.524;9.040;2023-06-10T08:01:34;8.00;;;7.20;;
77864;SDS011;67061;48.524;9.040;2023-06-10T08:04:04;8.15;;;7.35;;
77864;SDS011;67061;48.524;9.040;2023-06-10T08:06:31;6.63;;;5.93;;
77864;SDS011;67061;48.524;9.040;2023-06-10T08:08:58;6.78;;;5.95;;
77864;SDS011;67061;48.524;9.040;2023-06-10T08:11:25;6.90;;;5.80;;
77864;SDS011;67061;48.524;9.040;2023-06-10T08:13:54;8.07;;;7.28;;
77864;SDS011;67061;48.524;9.040;2023-06-10T08:16:21;7.65;;;6.90;;
77864;SDS011;67061;48.524;9.040;2023-06-10T08:18:48;6.70;;;5.68;;
77864;SDS011;67061;48.524;9.040;2023-06-10T08:21:15;9.73;;;6.75;;
77864;SDS011;67061;48.524;9.040;2023-06-10T08:23:42;7.93;;;7.22;;
77864;SDS011;67061;48.524;9.040;2023-06-10T08:26:10;7.40;;;5.85;;
77864;SDS011;67061;48.524;9.040;2023-06-10T08:28:38;6.47;;;5.10;;
77864;SDS011;67061;48.524;9.040;2023-06-10T08:31:06;7.18;;;6.45;;
77864;SDS011;67061;48.524;9.040;2023-06-10T08:33:33;7.55;;;5.28;;
77864;SDS011;67061;48.524;9.040;2023-06-10T08:36:00;6.25;;;5.53;;
77864;SDS011;67061;48.524;9.040;2023-06-10T08:38:27;6.68;;;6.05;;
77864;SDS011;67061;48.524;9.040;2023-06-10T08:40:54;7.20;;;6.47;;
77864;SDS011;67061;48.524;9.040;2023-06-10T08:43:27;6.80;;;5.05;;
77864;SDS011;67061;48.524;9.040;2023-06-10T08:45:59;7.43;;;6.47;;
77864;SDS011;67061;48.524;9.040;2023-06-10T08:48:29;5.57;;;4.97;;
77864;SDS011;67061;48.524;9.040;2023-06-10T08:50:56;6.78;;;5.45;;
77864;SDS011;67061;48.524;9.040;2023-06-10T08:53:24;7.57;;;4.90;;
77864;SDS011;67061;48.524;9.040;2023-06-10T08:55:53;7.05;;;6.35;;
77864;SDS011;67061;48.524;9.040;2023-06-10T08:58:23;6.80;;;6.10;;
77864;SDS011;67061;48.524;9.040;2023-06-10T09:00:50;5.78;;;5.05;;
77864;SDS011;67061;48.524;9.040;2023-06-10T09:03:17;6.63;;;6.03;;
77864;SDS011;67061;48.524;9.040;2023-06-10T09:05:46;6.25;;;5.32;;
77864;SDS011;67061;48.524;9.040;2023-06-10T09:08:14;6.43;;;5.60;;
77864;SDS011;67061;48.524;9.040;2023-06-10T09:10:42;6.28;;;5.65;;
77864;SDS011;67061;48.524;9.040;2023-06-10T09:13:09;6.72;;;6.13;;
77864;SDS011;67061;48.524;9.040;2023-06-10T09:15:36;6.80;;;6.10;;
77864;SDS011;67061;48.524;9.040;2023-06-10T09:18:05;6.88;;;6.22;;
77864;SDS011;67061;48.524;9.040;2023-06-10T09:20:32;6.65;;;6.05;;
77864;SDS011;67061;48.524;9.040;2023-06-10T09:23:00;12.45;;;6.18;;
77864;SDS011;67061;48.524;9.040;2023-06-10T09:25:37;7.93;;;5.00;;
77864;SDS011;67061;48.524;9.040;2023-06-10T09:28:05;6.28;;;5.68;;
77864;SDS011;67061;48.524;9.040;2023-06-10T09:30:39;6.93;;;6.25;;
77864;SDS011;67061;48.524;9.040;2023-06-10T09:33:09;7.53;;;6.00;;
77864;SDS011;67061;48.524;9.040;2023-06-10T09:35:37;8.32;;;5.82;;
77864;SDS011;67061;48.524;9.040;2023-06-10T09:38:13;6.40;;;5.80;;
77864;SDS011;67061;48.524;9.040;2023-06-10T09:40:48;6.47;;;5.88;;
77864;SDS011;67061;48.524;9.040;2023-06-10T09:43:16;7.10;;;6.40;;
77864;SDS011;67061;48.524;9.040;2023-06-10T09:45:43;6.82;;;5.47;;
77864;SDS011;67061;48.524;9.040;2023-06-10T09:48:10;6.18;;;5.57;;
77864;SDS011;67061;48.524;9.040;2023-06-10T09:50:41;5.70;;;5.20;;
77864;SDS011;67061;48.524;9.040;2023-06-10T09:53:09;6.85;;;5.68;;
77864;SDS011;67061;48.524;9.040;2023-06-10T09:55:38;5.82;;;5.22;;
77864;SDS011;67061;48.524;9.040;2023-06-10T09:58:05;6.88;;;4.13;;
77864;SDS011;67061;48.524;9.040;2023-06-10T10:00:33;5.47;;;4.97;;
77864;SDS011;67061;48.524;9.040;2023-06-10T10:03:00;5.93;;;5.32;;
77864;SDS011;67061;48.524;9.040;2023-06-10T10:05:28;6.20;;;5.60;;
77864;SDS011;67061;48.524;9.040;2023-06-10T10:07:56;5.43;;;4.93;;
77864;SDS011;67061;48.524;9.040;2023-06-10T10:10:23;4.43;;;3.78;;
77864;SDS011;67061;48.524;9.040;2023-06-10T10:12:54;5.88;;;5.35;;
77864;SDS011;67061;48.524;9.040;2023-06-10T10:15:22;6.63;;;5.57;;
77864;SDS011;67061;48.524;9.040;2023-06-10T10:17:52;7.45;;;6.57;;
77864;SDS011;67061;48.524;9.040;2023-06-10T10:20:24;6.88;;;6.05;;
77864;SDS011;67061;48.524;9.040;2023-06-10T10:22:56;5.75;;;4.10;;
77864;SDS011;67061;48.524;9.040;2023-06-10T10:25:24;5.78;;;5.20;;
77864;SDS011;67061;48.524;9.040;2023-06-10T10:27:56;6.70;;;4.97;;
77864;SDS011;67061;48.524;9.040;2023-06-10T10:30:28;4.63;;;4.10;;
77864;SDS011;67061;48.524;9.040;2023-06-10T10:33:00;5.55;;;4.82;;
77864;SDS011;67061;48.524;9.040;2023-06-10T10:35:33;6.75;;;5.35;;
77864;SDS011;67061;48.524;9.040;2023-06-10T10:38:01;6.20;;;5.22;;
77864;SDS011;67061;48.524;9.040;2023-06-10T10:40:32;5.00;;;4.50;;
77864;SDS011;67061;48.524;9.040;2023-06-10T10:43:01;5.60;;;4.88;;
77864;SDS011;67061;48.524;9.040;2023-06-10T10:45:29;5.35;;;4.25;;
77864;SDS011;67061;48.524;9.040;2023-06-10T10:47:56;5.30;;;4.80;;
77864;SDS011;67061;48.524;9.040;2023-06-10T10:50:23;5.95;;;5.13;;
77864;SDS011;67061;48.524;9.040;2023-06-10T10:52:56;6.93;;;5.38;;
77864;SDS011;67061;48.524;9.040;2023-06-10T10:55:25;5.78;;;5.25;;
77864;SDS011;67061;48.524;9.040;2023-06-10T10:57:53;5.95;;;5.35;;
77864;SDS011;67061;48.524;9.040;2023-06-10T11:02:57;6.30;;;5.70;;
77864;SDS011;67061;48.524;9.040;2023-06-10T11:05:35;5.65;;;4.72;;
77864;SDS011;67061;48.524;9.040;2023-06-10T11:08:04;5.03;;;4.43;;
77864;SDS011;67061;48.524;9.040;2023-06-10T11:13:00;6.38;;;4.07;;
77864;SDS011;67061;48.524;9.040;2023-06-10T11:15:33;5.70;;;5.22;;
77864;SDS011;67061;48.524;9.040;2023-06-10T11:18:15;6.05;;;4.97;;
77864;SDS011;67061;48.524;9.040;2023-06-10T11:20:54;5.65;;;5.15;;
77864;SDS011;67061;48.524;9.040;2023-06-10T11:23:39;4.57;;;4.18;;
77864;SDS011;67061;48.524;9.040;2023-06-10T11:26:10;7.47;;;5.05;;
77864;SDS011;67061;48.524;9.040;2023-06-10T11:28:42;5.40;;;4.93;;
77864;SDS011;67061;48.524;9.040;2023-06-10T11:31:29;5.22;;;4.72;;
77864;SDS011;67061;48.524;9.040;2023-06-10T11:33:58;6.00;;;5.40;;
77864;SDS011;67061;48.524;9.040;2023-06-10T11:36:26;6.05;;;5.55;;
77864;SDS011;67061;48.524;9.040;2023-06-10T11:38:56;4.47;;;4.07;;
77864;SDS011;67061;48.524;9.040;2023-06-10T11:41:24;5.60;;;3.95;;
77864;SDS011;67061;48.524;9.040;2023-06-10T11:43:52;4.15;;;3.70;;
77864;SDS011;67061;48.524;9.040;2023-06-10T11:46:21;5.57;;;4.88;;
77864;SDS011;67061;48.524;9.040;2023-06-10T11:48:52;6.95;;;5.18;;
77864;SDS011;67061;48.524;9.040;2023-06-10T11:51:20;7.22;;;5.32;;
77864;SDS011;67061;48.524;9.040;2023-06-10T11:53:47;5.20;;;4.05;;
77864;SDS011;67061;48.524;9.040;2023-06-10T11:56:19;5.93;;;5.43;;
77864;SDS011;67061;48.524;9.040;2023-06-10T11:58:51;5.50;;;5.00;;
77864;SDS011;67061;48.524;9.040;2023-06-10T12:01:19;6.38;;;5.25;;
77864;SDS011;67061;48.524;9.040;2023-06-10T12:03:47;4.55;;;3.95;;
77864;SDS011;67061;48.524;9.040;2023-06-10T12:06:24;5.45;;;4.95;;
77864;SDS011;67061;48.524;9.040;2023-06-10T12:08:51;5.00;;;4.50;;
77864;SDS011;67061;48.524;9.040;2023-06-10T12:11:17;5.10;;;3.83;;
77864;SDS011;67061;48.524;9.040;2023-06-10T12:13:46;5.10;;;4.20;;
77864;SDS011;67061;48.524;9.040;2023-06-10T12:16:14;7.15;;;5.63;;
77864;SDS011;67061;48.524;9.040;2023-06-10T12:18:43;6.20;;;5.70;;
77864;SDS011;67061;48.524;9.040;2023-06-10T12:21:23;6.88;;;5.18;;
77864;SDS011;67061;48.524;9.040;2023-06-10T12:24:00;6.05;;;5.30;;
77864;SDS011;67061;48.524;9.040;2023-06-10T12:26:39;5.70;;;5.25;;
77864;SDS011;67061;48.524;9.040;2023-06-10T12:29:15;6.22;;;5.63;;
77864;SDS011;67061;48.524;9.040;2023-06-10T12:31:57;6.53;;;4.53;;
77864;SDS011;67061;48.524;9.040;2023-06-10T12:34:29;5.55;;;5.00;;
77864;SDS011;67061;48.524;9.040;2023-06-10T12:37:02;5.25;;;4.75;;
77864;SDS011;67061;48.524;9.040;2023-06-10T12:39:31;5.63;;;5.10;;
77864;SDS011;67061;48.524;9.040;2023-06-10T12:41:59;5.22;;;4.72;;
77864;SDS011;67061;48.524;9.040;2023-06-10T12:44:30;5.68;;;5.13;;
77864;SDS011;67061;48.524;9.040;2023-06-10T12:47:01;5.00;;;4.45;;
77864;SDS011;67061;48.524;9.040;2023-06-10T12:49:33;5.65;;;4.82;;
77864;SDS011;67061;48.524;9.040;2023-06-10T12:52:01;6.30;;;5.22;;
77864;SDS011;67061;48.524;9.040;2023-06-10T12:54:29;5.65;;;5.15;;
77864;SDS011;67061;48.524;9.040;2023-06-10T12:56:56;5.85;;;5.35;;
77864;SDS011;67061;48.524;9.040;2023-06-10T12:59:22;5.35;;;4.78;;
77864;SDS011;67061;48.524;9.040;2023-06-10T13:01:50;4.18;;;3.42;;
77864;SDS011;67061;48.524;9.040;2023-06-10T13:04:18;4.70;;;4.20;;
77864;SDS011;67061;48.524;9.040;2023-06-10T13:06:46;4.45;;;3.28;;
77864;SDS011;67061;48.524;9.040;2023-06-10T13:09:15;4.60;;;4.20;;
77864;SDS011;67061;48.524;9.040;2023-06-10T13:11:42;4.30;;;3.90;;
77864;SDS011;67061;48.524;9.040;2023-06-10T13:14:10;4.53;;;4.05;;
77864;SDS011;67061;48.524;9.040;2023-06-10T13:16:37;4.57;;;4.18;;
77864;SDS011;67061;48.524;9.040;2023-06-10T13:19:04;4.57;;;4.18;;
77864;SDS011;67061;48.524;9.040;2023-06-10T13:21:32;4.30;;;3.63;;
77864;SDS011;67061;48.524;9.040;2023-06-10T13:23:59;5.25;;;3.60;;
77864;SDS011;67061;48.524;9.040;2023-06-10T13:26:28;4.43;;;3.58;;
77864;SDS011;67061;48.524;9.040;2023-06-10T13:28:55;5.55;;;5.05;;
77864;SDS011;67061;48.524;9.040;2023-06-10T13:31:22;5.35;;;4.85;;
77864;SDS011;67061;48.524;9.040;2023-06-10T13:33:49;6.60;;;4.53;;
77864;SDS011;67061;48.524;9.040;2023-06-10T13:36:22;5.32;;;4.47;;
77864;SDS011;67061;48.524;9.040;2023-06-10T13:38:49;5.05;;;4.65;;
77864;SDS011;67061;48.524;9.040;2023-06-10T13:41:16;4.55;;;4.15;;
77864;SDS011;67061;48.524;9.040;2023-06-10T13:43:44;4.05;;;3.65;;
77864;SDS011;67061;48.524;9.040;2023-06-10T13:46:11;4.97;;;3.53;;
77864;SDS011;67061;48.524;9.040;2023-06-10T13:48:38;5.38;;;3.95;;
77864;SDS011;67061;48.524;9.040;2023-06-10T13:51:05;5.00;;;4.53;;
77864;SDS011;67061;48.524;9.040;2023-06-10T13:53:34;5.25;;;4.72;;
77864;SDS011;67061;48.524;9.040;2023-06-10T13:56:01;5.35;;;4.32;;
77864;SDS011;67061;48.524;9.040;2023-06-10T13:58:28;5.40;;;4.30;;
77864;SDS011;67061;48.524;9.040;2023-06-10T14:00:56;6.30;;;4.50;;
77864;SDS011;67061;48.524;9.040;2023-06-10T14:03:24;5.57;;;4.80;;
77864;SDS011;67061;48.524;9.040;2023-06-10T14:05:51;3.97;;;3.40;;
77864;SDS011;67061;48.524;9.040;2023-06-10T14:08:18;4.80;;;4.40;;
77864;SDS011;67061;48.524;9.040;2023-06-10T14:10:46;5.28;;;4.78;;
77864;SDS011;67061;48.524;9.040;2023-06-10T14:13:13;4.68;;;4.28;;
77864;SDS011;67061;48.524;9.040;2023-06-10T14:15:40;5.75;;;5.25;;
77864;SDS011;67061;48.524;9.040;2023-06-10T14:18:08;5.65;;;5.07;;
77864;SDS011;67061;48.524;9.040;2023-06-10T14:20:35;5.60;;;5.03;;
77864;SDS011;67061;48.524;9.040;2023-06-10T14:23:02;5.45;;;4.93;;
77864;SDS011;67061;48.524;9.040;2023-06-10T14:25:29;5.05;;;4.55;;
77864;SDS011;67061;48.524;9.040;2023-06-10T14:27:56;4.55;;;4.15;;
77864;SDS011;67061;48.524;9.040;2023-06-10T14:30:23;5.53;;;4.93;;
77864;SDS011;67061;48.524;9.040;2023-06-10T14:32:53;5.18;;;4.68;;
77864;SDS011;67061;48.524;9.040;2023-06-10T14:35:21;5.15;;;4.60;;
77864;SDS011;67061;48.524;9.040;2023-06-10T14:37:48;4.13;;;3.65;;
77864;SDS011;67061;48.524;9.040;2023-06-10T14:40:15;4.68;;;4.28;;
77864;SDS011;67061;48.524;9.040;2023-06-10T14:42:42;4.85;;;4.22;;
77864;SDS011;67061;48.524;9.040;2023-06-10T14:45:09;4.10;;;3.17;;
77864;SDS011;67061;48.524;9.040;2023-06-10T14:47:36;5.22;;;4.72;;
77864;SDS011;67061;48.524;9.040;2023-06-10T14:50:03;5.28;;;4.72;;
77864;SDS011;67061;48.524;9.040;2023-06-10T14:52:37;5.13;;;4.57;;
77864;SDS011;67061;48.524;9.040;2023-06-10T14:55:05;5.05;;;4.55;;
77864;SDS011;67061;48.524;9.040;2023-06-10T14:57:36;4.75;;;4.30;;